TAF and METAR

METAR for Fornebu Airport

ENFB 270250Z AUTO 24015KT 9999NDV -RA BKN024/// 04/00 Q0987 W///S5
Report created 27. feb 03:50
report generated by an automatic observation system. wind 15 knots from WSW (240°) visibility > 10km light rain broken clouds (~75% cover) at 2400 feet Temperature 4° with dewpoint at 0° (Humidity 75.14%) Pressure 987 hPa
No TAF available for Fornebu Airport